Time;durP1;ratioP1;P1;durP2;ratioP2;P2;SDS_P1;SDS_P2;PMS_P1;PMS_P2;Temp;Humidity;BMP_temperature;BMP_pressure;BME280_temperature;BME280_humidity;BME280_pressure;Samples;Min_cycle;Max_cycle;Signal;HPM_P1;HPM_P2
2023/11/26 00:01:17;;;;;;;;;;;;;;;;;;4994743;28;20000;-72
2023/11/26 00:03:44;;;;;;;;;;;;;;;;;;4995290;28;19932;-73
2023/11/26 00:06:11;;;;;;;;;;;;;;;;;;4992814;28;19972;-72
2023/11/26 00:08:38;;;;;;;;;;;;;;;;;;4994527;28;19984;-72
2023/11/26 00:11:05;;;;;;;;;;;;;;;;;;4979304;28;19981;-72
2023/11/26 00:13:32;;;;;;;;;;;;;;;;;;5012590;28;19937;-72
2023/11/26 00:15:59;;;;;;;;;;;;;;;;;;5001513;28;19980;-71
2023/11/26 00:18:28;;;;;;;;;;;;;;;;;;4992380;28;20005;-71
2023/11/26 00:20:55;;;;;;;;;;;;;;;;;;4991232;28;20028;-71
2023/11/26 00:23:22;;;;;;;;;;;;;;;;;;4993757;28;19926;-71
2023/11/26 00:25:49;;;;;;;;;;;;;;;;;;4993121;28;20028;-72
2023/11/26 00:28:16;;;;;;;;;;;;;;;;;;4997662;28;19926;-72
2023/11/26 00:30:43;;;;;;;;;;;;;;;;;;5013328;28;19976;-71
2023/11/26 00:33:10;;;;;;;;;;;;;;;;;;5010809;28;19937;-72
2023/11/26 00:35:37;;;;;;;;;;;;;;;;;;4991691;28;20049;-71
2023/11/26 00:38:04;;;;;;;;;;;;;;;;;;4994143;28;19926;-71
2023/11/26 00:40:31;;;;;;;;;;;;;;;;;;5009280;28;19930;-71
2023/11/26 00:42:58;;;;;;;;;;;;;;;;;;5013371;28;19925;-71
2023/11/26 00:45:25;;;;;;;;;;;;;;;;;;5002807;28;19964;-71
2023/11/26 00:47:52;;;;;;;;;;;;;;;;;;4991080;28;20371;-72
2023/11/26 00:50:19;;;;;;;;;;;;;;;;;;4989021;28;19973;-72
2023/11/26 00:52:46;;;;;;;;;;;;;;;;;;4993043;28;19932;-71
2023/11/26 00:55:13;;;;;;;;;;;;;;;;;;4993552;28;20012;-72
2023/11/26 00:57:40;;;;;;;;;;;;;;;;;;4993405;28;19925;-72
2023/11/26 01:00:10;;;;;;;;;;;;;;;;;;4990410;28;19930;-72
2023/11/26 01:02:38;;;;;;;;;;;;;;;;;;4976819;28;19972;-71
2023/11/26 01:05:06;;;;;;;;;;;;;;;;;;4989415;28;20308;-71
2023/11/26 01:07:33;;;;;;;;;;;;;;;;;;4988390;28;20032;-72
2023/11/26 01:10:00;;;;;;;;;;;;;;;;;;4992856;28;20037;-74
2023/11/26 01:12:27;;;;;;;;;;;;;;;;;;4992114;28;20009;-72
2023/11/26 01:14:54;;;;;;;;;;;;;;;;;;4992196;28;20449;-73
2023/11/26 01:17:21;;;;;;;;;;;;;;;;;;4992905;28;19933;-73
2023/11/26 01:19:48;;;;;;;;;;;;;;;;;;4987230;28;20024;-73
2023/11/26 01:22:15;;;;;;;;;;;;;;;;;;4993065;28;19926;-73
2023/11/26 01:24:42;;;;;;;;;;;;;;;;;;4989818;28;19926;-73
2023/11/26 01:27:09;;;;;;;;;;;;;;;;;;4993365;28;19926;-73
2023/11/26 01:29:36;;;;;;;;;;;;;;;;;;4993622;28;19926;-73
2023/11/26 01:32:03;;;;;;;;;;;;;;;;;;4993384;28;20032;-73
2023/11/26 01:34:30;;;;;;;;;;;;;;;;;;4986396;28;19965;-73
2023/11/26 01:36:57;;;;;;;;;;;;;;;;;;4994806;28;20017;-74
2023/11/26 01:39:24;;;;;;;;;;;;;;;;;;4995903;28;20012;-73
2023/11/26 01:41:51;;;;;;;;;;;;;;;;;;4993016;28;19936;-73
2023/11/26 01:44:18;;;;;;;;;;;;;;;;;;4993281;28;19928;-74
2023/11/26 01:46:44;;;;;;;;;;;;;;;;;;4993123;28;19976;-73
2023/11/26 01:49:11;;;;;;;;;;;;;;;;;;4991735;28;19930;-74
2023/11/26 01:51:38;;;;;;;;;;;;;;;;;;4989868;28;19977;-74
2023/11/26 01:54:05;;;;;;;;;;;;;;;;;;4974254;28;19960;-74
2023/11/26 01:56:33;;;;;;;;;;;;;;;;;;4994805;28;19932;-73
2023/11/26 01:59:00;;;;;;;;;;;;;;;;;;5000114;28;19933;-72
2023/11/26 02:01:27;;;;;;;;;;;;;;;;;;4992338;28;19977;-72
2023/11/26 02:03:54;;;;;;;;;;;;;;;;;;5002350;28;19930;-74
2023/11/26 02:06:21;;;;;;;;;;;;;;;;;;4989830;28;19926;-74
2023/11/26 02:08:48;;;;;;;;;;;;;;;;;;4990558;28;20023;-76
2023/11/26 02:11:15;;;;;;;;;;;;;;;;;;4992465;28;20016;-75
2023/11/26 02:13:42;;;;;;;;;;;;;;;;;;4989826;28;20024;-75
2023/11/26 02:16:09;;;;;;;;;;;;;;;;;;4995546;28;20025;-73
2023/11/26 02:18:36;;;;;;;;;;;;;;;;;;4974027;28;19961;-74
2023/11/26 02:21:03;;;;;;;;;;;;;;;;;;4987106;28;20013;-73
2023/11/26 02:23:30;;;;;;;;;;;;;;;;;;4992695;28;19933;-74
2023/11/26 02:25:57;;;;;;;;;;;;;;;;;;4990134;28;20012;-75
2023/11/26 02:28:24;;;;;;;;;;;;;;;;;;4989542;28;20016;-75
2023/11/26 02:30:51;;;;;;;;;;;;;;;;;;5002577;28;19934;-74
2023/11/26 02:33:18;;;;;;;;;;;;;;;;;;4989071;28;19996;-73
2023/11/26 02:35:45;;;;;;;;;;;;;;;;;;4994842;28;19926;-73
2023/11/26 02:38:12;;;;;;;;;;;;;;;;;;4995274;28;20943;-72
2023/11/26 02:40:39;;;;;;;;;;;;;;;;;;4995920;28;19926;-72
2023/11/26 02:43:06;;;;;;;;;;;;;;;;;;4992892;28;19926;-73
2023/11/26 02:45:33;;;;;;;;;;;;;;;;;;4996537;28;20011;-74
2023/11/26 02:48:00;;;;;;;;;;;;;;;;;;4995962;28;19926;-72
2023/11/26 02:50:28;;;;;;;;;;;;;;;;;;5007844;28;19925;-74
2023/11/26 02:52:55;;;;;;;;;;;;;;;;;;5003210;28;19977;-73
2023/11/26 02:55:22;;;;;;;;;;;;;;;;;;4991243;28;20329;-74
2023/11/26 02:57:49;;;;;;;;;;;;;;;;;;5011338;28;19925;-73
2023/11/26 03:00:19;;;;;;;;;;;;;;;;;;4998682;28;20024;-73
2023/11/26 03:02:46;;;;;;;;;;;;;;;;;;4992043;28;19926;-73
2023/11/26 03:05:17;;;;;;;;;;;;;;;;;;4990631;28;20339;-72
2023/11/26 03:07:45;;;;;;;;;;;;;;;;;;4989621;28;20009;-73
2023/11/26 03:13:12;;;;;;;;;;;;;;;;;;4994892;28;19920;-73
2023/11/26 03:15:39;;;;;;;;;;;;;;;;;;4995553;28;20021;-72
2023/11/26 03:18:08;;;;;;;;;;;;;;;;;;4986192;28;19961;-73
2023/11/26 03:20:35;;;;;;;;;;;;;;;;;;4995224;28;19961;-72
2023/11/26 03:23:03;;;;;;;;;;;;;;;;;;4993920;28;19926;-72
2023/11/26 03:25:30;;;;;;;;;;;;;;;;;;5012840;28;19972;-72
2023/11/26 03:27:58;;;;;;;;;;;;;;;;;;4997460;28;20376;-72
2023/11/26 03:30:25;;;;;;;;;;;;;;;;;;4995329;28;19934;-73
2023/11/26 03:32:52;;;;;;;;;;;;;;;;;;4993512;28;19984;-72
2023/11/26 03:35:20;;;;;;;;;;;;;;;;;;4979981;28;20028;-73
2023/11/26 03:37:47;;;;;;;;;;;;;;;;;;4995328;28;20292;-72
2023/11/26 03:40:14;;;;;;;;;;;;;;;;;;4995688;28;19992;-72
2023/11/26 03:42:41;;;;;;;;;;;;;;;;;;4994654;28;20024;-72
2023/11/26 03:45:08;;;;;;;;;;;;;;;;;;5006731;28;19968;-72
2023/11/26 03:47:35;;;;;;;;;;;;;;;;;;5014495;28;20024;-72
2023/11/26 03:50:04;;;;;;;;;;;;;;;;;;5001132;28;19925;-72
2023/11/26 03:52:32;;;;;;;;;;;;;;;;;;4994176;28;19929;-72
2023/11/26 03:54:59;;;;;;;;;;;;;;;;;;4994785;28;19952;-72
2023/11/26 03:57:26;;;;;;;;;;;;;;;;;;4995055;28;19981;-72
2023/11/26 03:59:53;;;;;;;;;;;;;;;;;;4994836;28;19972;-72
2023/11/26 04:02:20;;;;;;;;;;;;;;;;;;5000750;28;19925;-73
2023/11/26 04:04:47;;;;;;;;;;;;;;;;;;4998364;28;20024;-73
2023/11/26 04:07:16;;;;;;;;;;;;;;;;;;4993438;28;20120;-72
2023/11/26 04:09:43;;;;;;;;;;;;;;;;;;4974985;28;19926;-72
2023/11/26 04:12:10;;;;;;;;;;;;;;;;;;4975179;28;19954;-73
2023/11/26 04:14:39;;;;;;;;;;;;;;;;;;4993272;28;19985;-72
2023/11/26 04:17:06;;;;;;;;;;;;;;;;;;4996089;28;19972;-72
2023/11/26 04:19:33;;;;;;;;;;;;;;;;;;5002454;28;19973;-73
2023/11/26 04:22:00;;;;;;;;;;;;;;;;;;4991835;28;19933;-72
2023/11/26 04:24:27;;;;;;;;;;;;;;;;;;4992792;28;19926;-74
2023/11/26 04:26:55;;;;;;;;;;;;;;;;;;4974623;28;19926;-73
2023/11/26 04:29:22;;;;;;;;;;;;;;;;;;4974581;28;19988;-73
2023/11/26 04:31:49;;;;;;;;;;;;;;;;;;4984666;28;20040;-72
2023/11/26 04:34:16;;;;;;;;;;;;;;;;;;4993515;28;20362;-73
2023/11/26 04:36:43;;;;;;;;;;;;;;;;;;5000635;28;20023;-75
2023/11/26 04:39:11;;;;;;;;;;;;;;;;;;5009804;28;20012;-73
2023/11/26 04:41:38;;;;;;;;;;;;;;;;;;4993334;28;20025;-71
2023/11/26 04:44:05;;;;;;;;;;;;;;;;;;4993994;28;20016;-72
2023/11/26 04:46:33;;;;;;;;;;;;;;;;;;5011165;28;20416;-72
2023/11/26 04:49:00;;;;;;;;;;;;;;;;;;5005694;28;19926;-73
2023/11/26 04:51:27;;;;;;;;;;;;;;;;;;4991493;28;19949;-73
2023/11/26 04:53:54;;;;;;;;;;;;;;;;;;4994094;28;21085;-72
2023/11/26 04:56:22;;;;;;;;;;;;;;;;;;5012672;28;19933;-71
2023/11/26 04:58:50;;;;;;;;;;;;;;;;;;5003715;28;19961;-73
2023/11/26 05:01:17;;;;;;;;;;;;;;;;;;4990846;28;19926;-72
2023/11/26 05:03:44;;;;;;;;;;;;;;;;;;4993827;28;20012;-74
2023/11/26 05:06:11;;;;;;;;;;;;;;;;;;4993491;28;19951;-72
2023/11/26 05:08:38;;;;;;;;;;;;;;;;;;4993648;28;19926;-72
2023/11/26 05:11:06;;;;;;;;;;;;;;;;;;4998139;28;19984;-72
2023/11/26 05:13:33;;;;;;;;;;;;;;;;;;4999810;28;19925;-72
2023/11/26 05:16:00;;;;;;;;;;;;;;;;;;4994503;28;19948;-72
2023/11/26 05:18:27;;;;;;;;;;;;;;;;;;4992638;28;19926;-73
2023/11/26 05:20:54;;;;;;;;;;;;;;;;;;4994701;28;19926;-72
2023/11/26 05:23:22;;;;;;;;;;;;;;;;;;4994149;28;20317;-71
2023/11/26 05:25:49;;;;;;;;;;;;;;;;;;4992296;28;19930;-71
2023/11/26 05:28:16;;;;;;;;;;;;;;;;;;4993493;28;19973;-72
2023/11/26 05:30:44;;;;;;;;;;;;;;;;;;4995426;28;20356;-72
2023/11/26 05:33:11;;;;;;;;;;;;;;;;;;4997521;28;20017;-72
2023/11/26 05:35:38;;;;;;;;;;;;;;;;;;4981752;28;20389;-73
2023/11/26 05:38:05;;;;;;;;;;;;;;;;;;4992624;28;19929;-72
2023/11/26 05:40:32;;;;;;;;;;;;;;;;;;4993755;28;20289;-73
2023/11/26 05:42:59;;;;;;;;;;;;;;;;;;4996031;28;19930;-73
2023/11/26 05:45:26;;;;;;;;;;;;;;;;;;4993322;28;20024;-72
2023/11/26 05:47:53;;;;;;;;;;;;;;;;;;4999780;28;20024;-73
2023/11/26 05:50:20;;;;;;;;;;;;;;;;;;4993132;28;20681;-73
2023/11/26 05:52:47;;;;;;;;;;;;;;;;;;4992815;28;19926;-72
2023/11/26 05:55:16;;;;;;;;;;;;;;;;;;4992913;28;19932;-72
2023/11/26 05:57:43;;;;;;;;;;;;;;;;;;4993419;28;19941;-73
2023/11/26 06:00:12;;;;;;;;;;;;;;;;;;4993333;28;19926;-78
2023/11/26 06:02:40;;;;;;;;;;;;;;;;;;4993202;28;19926;-79
2023/11/26 06:05:07;;;;;;;;;;;;;;;;;;4995589;28;19926;-78
2023/11/26 06:07:34;;;;;;;;;;;;;;;;;;4991575;28;19933;-79
2023/11/26 06:10:01;;;;;;;;;;;;;;;;;;4994080;28;20021;-78
2023/11/26 06:12:28;;;;;;;;;;;;;;;;;;4995449;28;20016;-80
2023/11/26 06:14:55;;;;;;;;;;;;;;;;;;4996459;28;19979;-78
2023/11/26 06:17:22;;;;;;;;;;;;;;;;;;4997089;28;20359;-80
2023/11/26 06:19:49;;;;;;;;;;;;;;;;;;4997031;28;19926;-79
2023/11/26 06:22:16;;;;;;;;;;;;;;;;;;4996424;28;19926;-78
2023/11/26 06:24:43;;;;;;;;;;;;;;;;;;4990013;28;20435;-77
2023/11/26 06:27:10;;;;;;;;;;;;;;;;;;4985614;28;19965;-80
2023/11/26 06:29:37;;;;;;;;;;;;;;;;;;4996160;28;20028;-80
2023/11/26 06:32:04;;;;;;;;;;;;;;;;;;4996367;28;19929;-77
2023/11/26 06:34:31;;;;;;;;;;;;;;;;;;4996974;28;20429;-79
2023/11/26 06:37:00;;;;;;;;;;;;;;;;;;4998484;28;19929;-81
2023/11/26 06:39:27;;;;;;;;;;;;;;;;;;4978125;28;19933;-78
2023/11/26 06:41:55;;;;;;;;;;;;;;;;;;4985066;28;19988;-79
2023/11/26 06:44:21;;;;;;;;;;;;;;;;;;4995663;28;19926;-80
2023/11/26 06:46:49;;;;;;;;;;;;;;;;;;4995776;28;20448;-82
2023/11/26 06:49:16;;;;;;;;;;;;;;;;;;4996697;28;20426;-79
2023/11/26 06:51:43;;;;;;;;;;;;;;;;;;4995520;28;19984;-81
2023/11/26 06:54:10;;;;;;;;;;;;;;;;;;4996008;28;19932;-80
2023/11/26 06:56:37;;;;;;;;;;;;;;;;;;4995345;28;20028;-81
2023/11/26 06:59:04;;;;;;;;;;;;;;;;;;4997131;28;19972;-79
2023/11/26 07:01:32;;;;;;;;;;;;;;;;;;4998271;28;19926;-81
2023/11/26 07:03:59;;;;;;;;;;;;;;;;;;5001414;28;19934;-83
2023/11/26 07:06:26;;;;;;;;;;;;;;;;;;5000767;28;20282;-82
2023/11/26 07:08:53;;;;;;;;;;;;;;;;;;4993031;28;19934;-84
2023/11/26 07:11:22;;;;;;;;;;;;;;;;;;4994770;28;20385;-84
2023/11/26 07:13:50;;;;;;;;;;;;;;;;;;4994173;28;19925;-83
2023/11/26 07:16:18;;;;;;;;;;;;;;;;;;4992305;28;20408;-83
2023/11/26 07:18:45;;;;;;;;;;;;;;;;;;4998098;28;19926;-84
2023/11/26 07:21:12;;;;;;;;;;;;;;;;;;4995193;28;20332;-84
2023/11/26 07:23:39;;;;;;;;;;;;;;;;;;4995047;28;19926;-84
2023/11/26 07:26:06;;;;;;;;;;;;;;;;;;4998934;28;19988;-84
2023/11/26 07:28:36;;;;;;;;;;;;;;;;;;5007680;28;19980;-85
2023/11/26 07:31:04;;;;;;;;;;;;;;;;;;4995178;28;19932;-82
2023/11/26 07:33:31;;;;;;;;;;;;;;;;;;4995705;28;20375;-83
2023/11/26 07:35:58;;;;;;;;;;;;;;;;;;4993710;28;19938;-82
2023/11/26 07:38:26;;;;;;;;;;;;;;;;;;4993991;28;19926;-83
2023/11/26 07:40:53;;;;;;;;;;;;;;;;;;4993604;28;19934;-81
2023/11/26 07:43:20;;;;;;;;;;;;;;;;;;4993518;28;19926;-79
2023/11/26 07:45:48;;;;;;;;;;;;;;;;;;4994550;28;19930;-78
2023/11/26 07:48:15;;;;;;;;;;;;;;;;;;4995373;28;20010;-81
2023/11/26 07:50:42;;;;;;;;;;;;;;;;;;4993966;28;19989;-80
2023/11/26 07:53:10;;;;;;;;;;;;;;;;;;4991115;28;19933;-80
2023/11/26 07:55:37;;;;;;;;;;;;;;;;;;4988529;28;19980;-81
2023/11/26 07:58:05;;;;;;;;;;;;;;;;;;4991237;28;19926;-82
2023/11/26 08:00:33;;;;;;;;;;;;;;;;;;4987043;28;19926;-81
2023/11/26 08:03:00;;;;;;;;;;;;;;;;;;4989147;28;19930;-80
2023/11/26 08:05:28;;;;;;;;;;;;;;;;;;4989501;28;19936;-80
2023/11/26 08:07:55;;;;;;;;;;;;;;;;;;4988679;28;19926;-83
2023/11/26 08:10:26;;;;;;;;;;;;;;;;;;4987373;28;19938;-82
2023/11/26 08:12:53;;;;;;;;;;;;;;;;;;4991154;28;20414;-83
2023/11/26 08:15:21;;;;;;;;;;;;;;;;;;4986843;28;19925;-80
2023/11/26 08:17:50;;;;;;;;;;;;;;;;;;4991986;28;20016;-81
2023/11/26 08:20:18;;;;;;;;;;;;;;;;;;5003080;28;19981;-81
2023/11/26 08:22:46;;;;;;;;;;;;;;;;;;4987917;28;20073;-77
2023/11/26 08:25:17;;;;;;;;;;;;;;;;;;4992938;28;19925;-79
2023/11/26 08:27:46;;;;;;;;;;;;;;;;;;4991631;28;19972;-78
2023/11/26 08:30:15;;;;;;;;;;;;;;;;;;4993257;28;19925;-78
2023/11/26 08:32:44;;;;;;;;;;;;;;;;;;4985074;28;20385;-79
2023/11/26 08:35:12;;;;;;;;;;;;;;;;;;4993184;28;19926;-80
2023/11/26 08:37:50;;;;;;;;;;;;;;;;;;4994795;28;20300;-79
2023/11/26 08:40:18;;;;;;;;;;;;;;;;;;4988205;28;19934;-80
2023/11/26 08:42:47;;;;;;;;;;;;;;;;;;5014476;22;19928;-77
2023/11/26 08:45:14;;;;;;;;;;;;;;;;;;5044849;28;19975;-81
2023/11/26 08:47:44;;;;;;;;;;;;;;;;;;5026882;28;20392;-80
2023/11/26 08:50:11;;;;;;;;;;;;;;;;;;5028689;28;19931;-80
2023/11/26 08:52:40;;;;;;;;;;;;;;;;;;5028819;28;20288;-79
2023/11/26 08:55:09;;;;;;;;;;;;;;;;;;5028510;28;19925;-79
2023/11/26 08:57:36;;;;;;;;;;;;;;;;;;5029160;28;19929;-77
2023/11/26 09:00:03;;;;;;;;;;;;;;;;;;5022363;28;19929;-77
2023/11/26 09:02:31;;;;;;;;;;;;;;;;;;5025442;28;20020;-74
2023/11/26 09:04:58;;;;;;;;;;;;;;;;;;5031447;28;20403;-75
2023/11/26 09:07:25;;;;;;;;;;;;;;;;;;5027977;28;19972;-73
2023/11/26 09:09:52;;;;;;;;;;;;;;;;;;5025103;28;19999;-74
2023/11/26 09:12:22;;;;;;;;;;;;;;;;;;5025377;28;19925;-73
2023/11/26 09:14:50;;;;;;;;;;;;;;;;;;5021908;28;20389;-77
2023/11/26 09:17:18;;;;;;;;;;;;;;;;;;5023478;28;20916;-72
2023/11/26 09:19:45;;;;;;;;;;;;;;;;;;5017064;28;20316;-73
2023/11/26 09:22:12;;;;;;;;;;;;;;;;;;5008372;28;19929;-74
2023/11/26 09:24:39;;;;;;;;;;;;;;;;;;5010714;28;19932;-73
2023/11/26 09:27:07;;;;;;;;;;;;;;;;;;5012520;28;19937;-73
2023/11/26 09:29:34;;;;;;;;;;;;;;;;;;5015281;28;19964;-73
2023/11/26 09:32:00;;;;;;;;;;;;;;;;;;5014614;28;20427;-75
2023/11/26 09:34:27;;;;;;;;;;;;;;;;;;5018648;28;20376;-73
2023/11/26 09:36:56;;;;;;;;;;;;;;;;;;5017204;28;19987;-72
2023/11/26 09:39:23;;;;;;;;;;;;;;;;;;5022840;28;19933;-73
2023/11/26 09:41:52;;;;;;;;;;;;;;;;;;5027869;28;19925;-74
2023/11/26 09:44:19;;;;;;;;;;;;;;;;;;4943860;28;2007363;-75
2023/11/26 09:46:46;;;;;;;;;;;;;;;;;;5023288;28;19925;-73
2023/11/26 09:49:13;;;;;;;;;;;;;;;;;;5027797;28;20410;-74
2023/11/26 09:51:40;;;;;;;;;;;;;;;;;;5015446;28;19976;-73
2023/11/26 09:54:09;;;;;;;;;;;;;;;;;;5028799;28;20056;-73
2023/11/26 09:56:36;;;;;;;;;;;;;;;;;;5023352;28;19933;-74
2023/11/26 09:59:08;;;;;;;;;;;;;;;;;;5040465;28;19924;-73
2023/11/26 10:01:35;;;;;;;;;;;;;;;;;;5035499;28;20015;-73
2023/11/26 10:04:04;;;;;;;;;;;;;;;;;;5021921;28;19933;-73
2023/11/26 10:06:31;;;;;;;;;;;;;;;;;;5028549;28;20423;-74
2023/11/26 10:08:58;;;;;;;;;;;;;;;;;;5030798;28;19933;-73
2023/11/26 10:11:25;;;;;;;;;;;;;;;;;;5027604;28;19932;-74
2023/11/26 10:13:52;;;;;;;;;;;;;;;;;;5031926;28;19932;-74
2023/11/26 10:16:19;;;;;;;;;;;;;;;;;;5026224;28;19991;-74
2023/11/26 10:18:47;;;;;;;;;;;;;;;;;;5030632;28;19933;-73
2023/11/26 10:21:16;;;;;;;;;;;;;;;;;;5024997;28;19933;-74
2023/11/26 10:23:44;;;;;;;;;;;;;;;;;;5025549;28;20012;-74
2023/11/26 10:26:12;;;;;;;;;;;;;;;;;;5021487;28;19925;-73
2023/11/26 10:28:39;;;;;;;;;;;;;;;;;;5021126;28;19964;-73
2023/11/26 10:31:06;;;;;;;;;;;;;;;;;;5014150;28;19956;-73
2023/11/26 10:33:33;;;;;;;;;;;;;;;;;;5003716;28;19929;-73
2023/11/26 10:36:00;;;;;;;;;;;;;;;;;;5013658;28;19932;-73
2023/11/26 10:38:34;;;;;;;;;;;;;;;;;;5030760;28;19925;-74
2023/11/26 10:41:01;;;;;;;;;;;;;;;;;;5030228;28;20400;-75
2023/11/26 10:43:28;;;;;;;;;;;;;;;;;;5038267;28;19975;-76
2023/11/26 10:45:56;;;;;;;;;;;;;;;;;;5038442;28;20305;-75
2023/11/26 10:48:23;;;;;;;;;;;;;;;;;;5042980;28;19978;-75
2023/11/26 10:50:50;;;;;;;;;;;;;;;;;;5029231;28;19929;-74
2023/11/26 10:53:17;;;;;;;;;;;;;;;;;;5027820;28;19924;-75
2023/11/26 10:55:44;;;;;;;;;;;;;;;;;;5030368;28;20125;-75
2023/11/26 10:58:11;;;;;;;;;;;;;;;;;;5039400;28;19933;-75
2023/11/26 11:00:38;;;;;;;;;;;;;;;;;;5048451;28;20371;-74
2023/11/26 11:03:05;;;;;;;;;;;;;;;;;;5029501;28;19936;-75
2023/11/26 11:05:34;;;;;;;;;;;;;;;;;;5032291;28;20426;-76
2023/11/26 11:08:01;;;;;;;;;;;;;;;;;;5033124;28;19925;-77
2023/11/26 11:10:31;;;;;;;;;;;;;;;;;;5043487;28;20348;-75
2023/11/26 11:12:58;;;;;;;;;;;;;;;;;;5029352;28;20273;-75
2023/11/26 11:15:25;;;;;;;;;;;;;;;;;;5016984;28;19968;-74
2023/11/26 11:17:52;;;;;;;;;;;;;;;;;;5031133;28;19971;-74
2023/11/26 11:20:19;;;;;;;;;;;;;;;;;;5016000;28;20184;-75
2023/11/26 11:22:46;;;;;;;;;;;;;;;;;;5017861;28;19933;-75
2023/11/26 11:25:13;;;;;;;;;;;;;;;;;;5021962;28;19925;-75
2023/11/26 11:27:39;;;;;;;;;;;;;;;;;;5027118;28;19925;-75
2023/11/26 11:30:06;;;;;;;;;;;;;;;;;;5016844;28;20372;-74
2023/11/26 11:32:33;;;;;;;;;;;;;;;;;;5016951;28;20414;-74
2023/11/26 11:35:00;;;;;;;;;;;;;;;;;;5018068;28;19933;-73
2023/11/26 11:37:27;;;;;;;;;;;;;;;;;;5021624;28;19961;-74
2023/11/26 11:39:57;;;;;;;;;;;;;;;;;;5028725;28;19925;-74
2023/11/26 11:42:27;;;;;;;;;;;;;;;;;;5029806;28;19926;-74
2023/11/26 11:44:54;;;;;;;;;;;;;;;;;;5018950;28;20012;-73
2023/11/26 11:47:23;;;;;;;;;;;;;;;;;;5022155;28;19972;-75
2023/11/26 11:49:51;;;;;;;;;;;;;;;;;;5029702;28;19940;-74
2023/11/26 11:52:19;;;;;;;;;;;;;;;;;;5027675;28;20004;-74
2023/11/26 11:54:46;;;;;;;;;;;;;;;;;;5024359;28;19933;-73
2023/11/26 11:57:13;;;;;;;;;;;;;;;;;;5018286;28;19925;-73
2023/11/26 11:59:40;;;;;;;;;;;;;;;;;;5019028;28;20036;-73
2023/11/26 12:02:08;;;;;;;;;;;;;;;;;;5012325;28;20415;-79
2023/11/26 12:04:38;;;;;;;;;;;;;;;;;;5024005;28;19987;-80
2023/11/26 12:07:13;;;;;;;;;;;;;;;;;;5018150;28;20368;-74
2023/11/26 12:09:43;;;;;;;;;;;;;;;;;;5010433;28;20664;-75
2023/11/26 12:12:10;;;;;;;;;;;;;;;;;;5015713;28;20391;-79
2023/11/26 12:14:37;;;;;;;;;;;;;;;;;;5024902;28;19933;-77
2023/11/26 12:17:06;;;;;;;;;;;;;;;;;;5019336;28;19988;-77
2023/11/26 12:19:33;;;;;;;;;;;;;;;;;;5014950;28;19929;-75
2023/11/26 12:22:00;;;;;;;;;;;;;;;;;;5024871;28;20599;-76
2023/11/26 12:24:29;;;;;;;;;;;;;;;;;;5018834;28;19956;-75
2023/11/26 12:26:56;;;;;;;;;;;;;;;;;;5010238;28;20331;-76
2023/11/26 12:29:25;;;;;;;;;;;;;;;;;;5020881;28;20947;-80
2023/11/26 12:31:52;;;;;;;;;;;;;;;;;;5022775;28;20407;-75
2023/11/26 12:34:19;;;;;;;;;;;;;;;;;;5021333;28;20027;-78
2023/11/26 12:36:48;;;;;;;;;;;;;;;;;;5014519;28;20862;-77
2023/11/26 12:39:15;;;;;;;;;;;;;;;;;;5016539;28;20468;-75
2023/11/26 12:41:45;;;;;;;;;;;;;;;;;;5019214;28;19943;-77
2023/11/26 12:44:12;;;;;;;;;;;;;;;;;;5017716;28;19975;-77
2023/11/26 12:46:39;;;;;;;;;;;;;;;;;;5024158;28;19983;-80
2023/11/26 12:49:09;;;;;;;;;;;;;;;;;;5013702;28;19929;-78
2023/11/26 12:51:36;;;;;;;;;;;;;;;;;;5007107;28;19940;-72
2023/11/26 12:54:04;;;;;;;;;;;;;;;;;;5002602;22;20593;-79
2023/11/26 12:56:31;;;;;;;;;;;;;;;;;;4992060;28;19944;-77
2023/11/26 12:58:59;;;;;;;;;;;;;;;;;;5001229;28;19984;-78
2023/11/26 13:01:26;;;;;;;;;;;;;;;;;;5004063;28;20412;-79
2023/11/26 13:03:53;;;;;;;;;;;;;;;;;;5010894;28;19932;-78
2023/11/26 13:06:25;;;;;;;;;;;;;;;;;;4997524;28;19939;-80
2023/11/26 13:08:52;;;;;;;;;;;;;;;;;;5000666;28;20027;-79
2023/11/26 13:11:20;;;;;;;;;;;;;;;;;;4993427;28;20348;-77
2023/11/26 13:13:48;;;;;;;;;;;;;;;;;;5007530;22;19933;-78
2023/11/26 13:16:16;;;;;;;;;;;;;;;;;;4992082;28;20383;-80
2023/11/26 13:18:43;;;;;;;;;;;;;;;;;;4982029;28;19937;-79
2023/11/26 13:21:11;;;;;;;;;;;;;;;;;;4988333;28;20015;-73
2023/11/26 13:23:39;;;;;;;;;;;;;;;;;;5001545;28;19929;-74
2023/11/26 13:26:06;;;;;;;;;;;;;;;;;;4995632;28;20468;-73
2023/11/26 13:28:33;;;;;;;;;;;;;;;;;;4982308;28;20593;-74
2023/11/26 13:31:00;;;;;;;;;;;;;;;;;;4983400;28;19979;-73
2023/11/26 13:33:27;;;;;;;;;;;;;;;;;;4994615;28;19925;-74
2023/11/26 13:35:59;;;;;;;;;;;;;;;;;;5006873;28;19979;-75
2023/11/26 13:38:26;;;;;;;;;;;;;;;;;;4999631;28;19926;-74
2023/11/26 13:40:53;;;;;;;;;;;;;;;;;;5004299;28;20024;-78
2023/11/26 13:43:22;;;;;;;;;;;;;;;;;;5007528;28;19987;-77
2023/11/26 13:45:50;;;;;;;;;;;;;;;;;;4997818;28;19933;-79
2023/11/26 13:48:22;;;;;;;;;;;;;;;;;;4988054;28;19941;-76
2023/11/26 13:50:49;;;;;;;;;;;;;;;;;;5007131;28;19925;-79
2023/11/26 13:53:17;;;;;;;;;;;;;;;;;;5005968;28;19933;-80
2023/11/26 13:55:44;;;;;;;;;;;;;;;;;;4999618;28;19941;-80
2023/11/26 13:58:13;;;;;;;;;;;;;;;;;;4987052;28;19933;-80
2023/11/26 14:00:43;;;;;;;;;;;;;;;;;;4984117;28;19933;-77
2023/11/26 14:03:11;;;;;;;;;;;;;;;;;;5006707;28;21526;-77
2023/11/26 14:05:38;;;;;;;;;;;;;;;;;;5001013;28;19933;-78
2023/11/26 14:08:07;;;;;;;;;;;;;;;;;;4985549;28;19972;-77
2023/11/26 14:10:34;;;;;;;;;;;;;;;;;;4996310;28;19925;-77
2023/11/26 14:13:01;;;;;;;;;;;;;;;;;;4993663;28;20724;-78
2023/11/26 14:15:31;;;;;;;;;;;;;;;;;;4992890;28;20012;-77
2023/11/26 14:17:58;;;;;;;;;;;;;;;;;;4983765;28;20090;-78
2023/11/26 14:20:25;;;;;;;;;;;;;;;;;;4983842;28;20024;-79
2023/11/26 14:22:52;;;;;;;;;;;;;;;;;;4998062;28;20051;-79
2023/11/26 14:25:19;;;;;;;;;;;;;;;;;;5008573;28;19941;-78
2023/11/26 14:27:47;;;;;;;;;;;;;;;;;;4997200;28;20020;-78
2023/11/26 14:30:14;;;;;;;;;;;;;;;;;;5013684;28;19926;-78
2023/11/26 14:32:41;;;;;;;;;;;;;;;;;;5013275;28;19933;-78
2023/11/26 14:35:08;;;;;;;;;;;;;;;;;;4999963;28;19926;-79
2023/11/26 14:37:35;;;;;;;;;;;;;;;;;;5001253;28;20028;-79
2023/11/26 14:40:09;;;;;;;;;;;;;;;;;;5004559;28;20331;-78
2023/11/26 14:42:36;;;;;;;;;;;;;;;;;;5003914;28;19930;-79
2023/11/26 14:45:04;;;;;;;;;;;;;;;;;;5003237;28;19967;-80
2023/11/26 14:47:31;;;;;;;;;;;;;;;;;;4997672;28;19996;-78
2023/11/26 14:50:02;;;;;;;;;;;;;;;;;;4995615;28;19993;-78
2023/11/26 14:52:30;;;;;;;;;;;;;;;;;;4992582;28;20055;-79
2023/11/26 14:54:57;;;;;;;;;;;;;;;;;;5000828;28;20462;-79
2023/11/26 14:57:26;;;;;;;;;;;;;;;;;;4995908;28;21482;-80
2023/11/26 14:59:55;;;;;;;;;;;;;;;;;;4996780;28;20024;-76
2023/11/26 15:02:22;;;;;;;;;;;;;;;;;;4995395;28;19925;-76
2023/11/26 15:04:49;;;;;;;;;;;;;;;;;;4994593;28;20008;-80
2023/11/26 15:07:16;;;;;;;;;;;;;;;;;;4993373;28;19933;-72
2023/11/26 15:09:45;;;;;;;;;;;;;;;;;;5001626;28;20404;-79
2023/11/26 15:12:12;;;;;;;;;;;;;;;;;;4990614;28;20466;-77
2023/11/26 15:14:39;;;;;;;;;;;;;;;;;;4999221;28;20300;-78
2023/11/26 15:17:06;;;;;;;;;;;;;;;;;;4991192;28;19956;-78
2023/11/26 15:19:34;;;;;;;;;;;;;;;;;;4988868;28;20615;-77
2023/11/26 15:22:06;;;;;;;;;;;;;;;;;;4996690;28;19933;-76
2023/11/26 15:24:33;;;;;;;;;;;;;;;;;;4999735;28;19935;-78
2023/11/26 15:27:00;;;;;;;;;;;;;;;;;;5001558;28;19972;-78
2023/11/26 15:29:30;;;;;;;;;;;;;;;;;;4992804;28;19944;-77
2023/11/26 15:31:57;;;;;;;;;;;;;;;;;;5006580;28;20312;-83
2023/11/26 15:34:24;;;;;;;;;;;;;;;;;;5010178;28;19984;-83
2023/11/26 15:36:51;;;;;;;;;;;;;;;;;;5010447;28;19929;-82
2023/11/26 15:39:22;;;;;;;;;;;;;;;;;;5003809;28;19925;-83
2023/11/26 15:41:50;;;;;;;;;;;;;;;;;;5011830;28;19933;-83
2023/11/26 15:44:17;;;;;;;;;;;;;;;;;;5001792;28;19934;-83
2023/11/26 15:46:44;;;;;;;;;;;;;;;;;;4997796;28;19930;-82
2023/11/26 15:49:11;;;;;;;;;;;;;;;;;;5008481;28;19932;-83
2023/11/26 15:51:38;;;;;;;;;;;;;;;;;;4999936;28;19933;-82
2023/11/26 15:54:05;;;;;;;;;;;;;;;;;;5004074;28;19940;-83
2023/11/26 15:59:13;;;;;;;;;;;;;;;;;;5021905;22;19941;-84
2023/11/26 16:01:41;;;;;;;;;;;;;;;;;;5023044;28;19987;-82
2023/11/26 16:04:08;;;;;;;;;;;;;;;;;;5026275;28;20139;-80
2023/11/26 16:06:35;;;;;;;;;;;;;;;;;;5033917;28;19929;-82
2023/11/26 16:09:02;;;;;;;;;;;;;;;;;;5031485;28;19925;-82
2023/11/26 16:11:30;;;;;;;;;;;;;;;;;;5029054;28;19936;-81
2023/11/26 16:13:57;;;;;;;;;;;;;;;;;;5023897;28;20027;-80
2023/11/26 16:16:24;;;;;;;;;;;;;;;;;;5027169;28;20438;-81
2023/11/26 16:18:52;;;;;;;;;;;;;;;;;;5027796;28;20286;-82
2023/11/26 16:21:19;;;;;;;;;;;;;;;;;;5020386;28;19925;-83
2023/11/26 16:23:46;;;;;;;;;;;;;;;;;;5022093;28;20324;-83
2023/11/26 16:26:13;;;;;;;;;;;;;;;;;;5014965;28;20703;-77
2023/11/26 16:28:40;;;;;;;;;;;;;;;;;;5019402;28;19925;-78
2023/11/26 16:31:08;;;;;;;;;;;;;;;;;;5021783;28;19925;-81
2023/11/26 16:33:35;;;;;;;;;;;;;;;;;;5015290;28;19928;-84
2023/11/26 16:36:03;;;;;;;;;;;;;;;;;;5015305;28;19933;-84
2023/11/26 16:38:30;;;;;;;;;;;;;;;;;;5017879;28;19933;-82
2023/11/26 16:40:57;;;;;;;;;;;;;;;;;;5007533;28;19933;-75
2023/11/26 16:43:27;;;;;;;;;;;;;;;;;;5012406;28;19948;-77
2023/11/26 16:45:54;;;;;;;;;;;;;;;;;;5011054;28;19933;-77
2023/11/26 16:48:21;;;;;;;;;;;;;;;;;;5014286;28;19971;-80
2023/11/26 16:50:48;;;;;;;;;;;;;;;;;;5007730;28;20552;-77
2023/11/26 16:53:15;;;;;;;;;;;;;;;;;;5003240;28;20411;-73